LFPGLFQA

Guest
Details From LFPG - Paris Charles De Gaulle
To LFQA - Reims Prunay
Flight Number -
Tags generated
Created
Modified
Stats Distance 64 nm / 118 km
Max Altitude 4,900 ft / 1,494 m
Waypoints 3
Social Downloads 0
Likes 0
Share VATSIM

Download

Looking for another format? Having issues loading an existing format? Contact us
Advertisement - Login to hide

Notes

Basic altitude profile: - Ascent Rate: 2500ft/min - Ascent Speed: 250kts - Cruise Altitude: 35000ft - Cruise Speed: 420kts - Descent Rate: 1500ft/min - Descent Speed: 250kts Options: - Use NATs: yes - Use PACOTS: yes - Use low airways: yes - Use high airways: yes

Route

LFPG CTL LFQA

ID Type Via Altitude Latitude Longitude Leg Dist Tot Dist Heading (true) Name
O LFPG APT - 0 ft / 0 m 49.00974˚ 2.56262˚ - 0 nm - Paris Charles De Gaulle
CTL VOR - 4,900 ft / 1,494 m 49.13775˚ 3.57769˚ 40 nm 40 nm 79° / 79° CHATILLON SUR MARNE VOR-DME
O LFQA APT - 0 ft / 0 m 49.20882˚ 4.15705˚ 23 nm 63 nm 79° / 80° Reims Prunay

Altitude Profile

Advertisement - Login to hide

LFPG

Details ICAO LFPG (CDG)
Name Paris Charles De Gaulle
Region France
Timezone Europe/Paris (UTC+1.0)
Stats Elevation 392 ft / 119 m (AMSL)
Location 49.009742° 2.562619°
Runways 4
Magnetic Variation 0.641° E

METAR

LFPG 140430Z 25016KT 9999 FEW041 05/01 Q1001 NOSIG

Decode

TAF

TAF AMD LFPG 140025Z 1400/1506 21015G25KT 9999 SCT020 TEMPO 1400/1401 25025G50KT 2000 TSRA SCT015CB TEMPO 1400/1420 SCT020TCU TEMPO 1400/1417 23020G35KT PROB40 TEMPO 1409/1420 3000 TSRA SCT013CB BKN015 PROB30 TEMPO 1414/1415 TSRAGS TX07/1414Z TN05/1405Z

Decode

Departure Runways

ID Width Length Bearing (true) Bearing (mag) Surface Threshold Offset Overrun Length
08L 148 ft / 45 m 14,039 ft / 4,279 m 85.37° 84.73° Asphalt 0 ft / 0 m 0 ft / 0 m
08R 197 ft / 60 m 8,797 ft / 2,681 m 85.39° 84.75° Asphalt 0 ft / 0 m 0 ft / 0 m
09L 197 ft / 60 m 8,835 ft / 2,693 m 85.39° 84.75° Asphalt 0 ft / 0 m 0 ft / 0 m
09R 148 ft / 45 m 13,744 ft / 4,189 m 85.38° 84.74° Asphalt 0 ft / 0 m 0 ft / 0 m
26L 197 ft / 60 m 8,797 ft / 2,681 m 265.41° 264.77° Asphalt 0 ft / 0 m 0 ft / 0 m
26R 148 ft / 45 m 14,039 ft / 4,279 m 265.41° 264.77° Asphalt 1,893 ft / 577 m 0 ft / 0 m
27L 148 ft / 45 m 13,744 ft / 4,189 m 265.42° 264.78° Asphalt 1,969 ft / 600 m 0 ft / 0 m
27R 197 ft / 60 m 8,835 ft / 2,693 m 265.41° 264.77° Asphalt 0 ft / 0 m 0 ft / 0 m

LFQA

Details ICAO LFQA
Name Reims Prunay
Region France
Timezone Europe/Paris (UTC+1.0)
Stats Elevation 313 ft / 95 m (AMSL)
Location 49.208822° 4.157050°
Runways 1
Magnetic Variation 1.108° E

METAR

LFQA 140430Z AUTO 25013KT 9999 FEW044 05/01 Q1000

Decode

TAF

Not found

Destination Runways

ID Width Length Bearing (true) Bearing (mag) Surface Threshold Offset Overrun Length
07 98 ft / 30 m 3,770 ft / 1,149 m 66.27° 65.16° Asphalt 640 ft / 195 m 0 ft / 0 m
25 98 ft / 30 m 3,770 ft / 1,149 m 246.29° 245.18° Asphalt 1,066 ft / 325 m 0 ft / 0 m